sensor_id;sensor_type;location;lat;lon;timestamp;temperature;humidity
45339;DHT22;31071;51.478;5.710;2023-08-08T00:02:37;14.10;99.90
45339;DHT22;31071;51.478;5.710;2023-08-08T00:05:03;14.20;99.90
45339;DHT22;31071;51.478;5.710;2023-08-08T00:07:29;14.10;99.90
45339;DHT22;31071;51.478;5.710;2023-08-08T00:09:56;14.10;99.90
45339;DHT22;31071;51.478;5.710;2023-08-08T00:12:22;14.20;99.90
45339;DHT22;31071;51.478;5.710;2023-08-08T00:14:48;14.10;99.90
45339;DHT22;31071;51.478;5.710;2023-08-08T00:17:14;14.20;99.90
45339;DHT22;31071;51.478;5.710;2023-08-08T00:19:40;14.30;99.90
45339;DHT22;31071;51.478;5.710;2023-08-08T00:22:06;14.20;99.90
45339;DHT22;31071;51.478;5.710;2023-08-08T00:24:34;14.20;99.90
45339;DHT22;31071;51.478;5.710;2023-08-08T00:27:00;14.70;99.90
45339;DHT22;31071;51.478;5.710;2023-08-08T00:29:25;16.70;99.90
45339;DHT22;31071;51.478;5.710;2023-08-08T00:31:51;13.40;99.90
45339;DHT22;31071;51.478;5.710;2023-08-08T00:34:17;14.40;99.90
45339;DHT22;31071;51.478;5.710;2023-08-08T00:36:42;14.40;99.90
45339;DHT22;31071;51.478;5.710;2023-08-08T00:39:08;14.30;99.90
45339;DHT22;31071;51.478;5.710;2023-08-08T00:41:37;14.40;99.90
45339;DHT22;31071;51.478;5.710;2023-08-08T00:44:03;14.40;99.90
45339;DHT22;31071;51.478;5.710;2023-08-08T00:46:29;14.10;99.90
45339;DHT22;31071;51.478;5.710;2023-08-08T00:48:55;14.50;99.90
45339;DHT22;31071;51.478;5.710;2023-08-08T00:51:21;16.40;99.90
45339;DHT22;31071;51.478;5.710;2023-08-08T00:53:47;14.70;99.90
45339;DHT22;31071;51.478;5.710;2023-08-08T00:56:18;14.50;99.90
45339;DHT22;31071;51.478;5.710;2023-08-08T00:58:44;14.50;99.90
45339;DHT22;31071;51.478;5.710;2023-08-08T01:01:18;16.70;99.90
45339;DHT22;31071;51.478;5.710;2023-08-08T01:03:44;14.50;99.90
45339;DHT22;31071;51.478;5.710;2023-08-08T01:06:51;13.30;99.90
45339;DHT22;31071;51.478;5.710;2023-08-08T01:09:16;14.40;99.90
45339;DHT22;31071;51.478;5.710;2023-08-08T01:11:44;14.50;99.90
45339;DHT22;31071;51.478;5.710;2023-08-08T01:14:18;14.40;99.90
45339;DHT22;31071;51.478;5.710;2023-08-08T01:16:45;13.80;99.90
45339;DHT22;31071;51.478;5.710;2023-08-08T01:19:15;13.60;99.90
45339;DHT22;31071;51.478;5.710;2023-08-08T01:21:43;14.50;99.90
45339;DHT22;31071;51.478;5.710;2023-08-08T01:24:23;14.50;99.90
45339;DHT22;31071;51.478;5.710;2023-08-08T01:26:51;14.60;99.90
45339;DHT22;31071;51.478;5.710;2023-08-08T01:29:23;16.00;99.90
45339;DHT22;31071;51.478;5.710;2023-08-08T01:31:49;14.70;99.90
45339;DHT22;31071;51.478;5.710;2023-08-08T01:34:15;14.60;99.90
45339;DHT22;31071;51.478;5.710;2023-08-08T01:36:56;14.70;99.90
45339;DHT22;31071;51.478;5.710;2023-08-08T01:39:27;14.80;99.90
45339;DHT22;31071;51.478;5.710;2023-08-08T01:41:54;14.80;99.90
45339;DHT22;31071;51.478;5.710;2023-08-08T01:44:24;17.00;99.90
45339;DHT22;31071;51.478;5.710;2023-08-08T01:46:53;14.80;99.90
45339;DHT22;31071;51.478;5.710;2023-08-08T01:49:19;15.10;99.90
45339;DHT22;31071;51.478;5.710;2023-08-08T01:51:44;14.70;99.90
45339;DHT22;31071;51.478;5.710;2023-08-08T01:54:10;15.10;99.90
45339;DHT22;31071;51.478;5.710;2023-08-08T01:56:36;14.70;99.90
45339;DHT22;31071;51.478;5.710;2023-08-08T01:59:02;14.70;99.90
45339;DHT22;31071;51.478;5.710;2023-08-08T02:01:27;14.60;99.90
45339;DHT22;31071;51.478;5.710;2023-08-08T02:04:02;14.70;99.90
45339;DHT22;31071;51.478;5.710;2023-08-08T02:06:28;14.70;99.90
45339;DHT22;31071;51.478;5.710;2023-08-08T02:08:54;14.70;99.90
45339;DHT22;31071;51.478;5.710;2023-08-08T02:11:19;14.70;99.90
45339;DHT22;31071;51.478;5.710;2023-08-08T02:13:47;14.50;99.90
45339;DHT22;31071;51.478;5.710;2023-08-08T02:16:12;14.70;99.90
45339;DHT22;31071;51.478;5.710;2023-08-08T02:18:38;16.00;99.90
45339;DHT22;31071;51.478;5.710;2023-08-08T02:21:09;14.60;99.90
45339;DHT22;31071;51.478;5.710;2023-08-08T02:23:51;16.60;99.90
45339;DHT22;31071;51.478;5.710;2023-08-08T02:26:17;14.40;99.90
45339;DHT22;31071;51.478;5.710;2023-08-08T02:28:43;14.40;99.90
45339;DHT22;31071;51.478;5.710;2023-08-08T02:31:12;14.40;99.90
45339;DHT22;31071;51.478;5.710;2023-08-08T02:33:37;14.40;99.90
45339;DHT22;31071;51.478;5.710;2023-08-08T02:36:03;14.30;99.90
45339;DHT22;31071;51.478;5.710;2023-08-08T02:38:29;14.30;99.90
45339;DHT22;31071;51.478;5.710;2023-08-08T02:40:55;15.30;99.90
45339;DHT22;31071;51.478;5.710;2023-08-08T02:43:21;14.20;99.90
45339;DHT22;31071;51.478;5.710;2023-08-08T02:45:46;14.20;99.90
45339;DHT22;31071;51.478;5.710;2023-08-08T02:48:12;15.40;99.90
45339;DHT22;31071;51.478;5.710;2023-08-08T02:50:38;15.70;99.90
45339;DHT22;31071;51.478;5.710;2023-08-08T02:53:03;14.10;99.90
45339;DHT22;31071;51.478;5.710;2023-08-08T02:55:29;14.10;99.90
45339;DHT22;31071;51.478;5.710;2023-08-08T02:57:55;14.10;99.90
45339;DHT22;31071;51.478;5.710;2023-08-08T03:00:21;14.10;99.90
45339;DHT22;31071;51.478;5.710;2023-08-08T03:02:46;14.20;99.90
45339;DHT22;31071;51.478;5.710;2023-08-08T03:05:12;14.10;99.90
45339;DHT22;31071;51.478;5.710;2023-08-08T03:07:38;14.60;99.90
45339;DHT22;31071;51.478;5.710;2023-08-08T03:10:04;14.10;99.90
45339;DHT22;31071;51.478;5.710;2023-08-08T03:12:30;14.00;99.90
45339;DHT22;31071;51.478;5.710;2023-08-08T03:14:57;15.30;99.90
45339;DHT22;31071;51.478;5.710;2023-08-08T03:17:23;14.00;99.90
45339;DHT22;31071;51.478;5.710;2023-08-08T03:19:49;13.90;99.90
45339;DHT22;31071;51.478;5.710;2023-08-08T03:22:14;14.00;99.90
45339;DHT22;31071;51.478;5.710;2023-08-08T03:24:40;14.00;99.90
45339;DHT22;31071;51.478;5.710;2023-08-08T03:27:07;14.50;99.90
45339;DHT22;31071;51.478;5.710;2023-08-08T03:29:34;14.60;99.90
45339;DHT22;31071;51.478;5.710;2023-08-08T03:32:00;14.10;99.90
45339;DHT22;31071;51.478;5.710;2023-08-08T03:34:26;15.40;99.90
45339;DHT22;31071;51.478;5.710;2023-08-08T03:36:51;14.00;99.90
45339;DHT22;31071;51.478;5.710;2023-08-08T03:39:17;14.00;99.90
45339;DHT22;31071;51.478;5.710;2023-08-08T03:41:43;14.10;99.90
45339;DHT22;31071;51.478;5.710;2023-08-08T03:44:09;14.00;99.90
45339;DHT22;31071;51.478;5.710;2023-08-08T03:46:34;14.10;99.90
45339;DHT22;31071;51.478;5.710;2023-08-08T03:49:00;14.10;99.90
45339;DHT22;31071;51.478;5.710;2023-08-08T03:51:26;16.10;99.90
45339;DHT22;31071;51.478;5.710;2023-08-08T03:53:52;14.10;99.90
45339;DHT22;31071;51.478;5.710;2023-08-08T03:56:18;14.00;99.90
45339;DHT22;31071;51.478;5.710;2023-08-08T03:58:44;14.10;99.90
45339;DHT22;31071;51.478;5.710;2023-08-08T04:01:09;14.10;99.90
45339;DHT22;31071;51.478;5.710;2023-08-08T04:03:36;14.60;99.90
45339;DHT22;31071;51.478;5.710;2023-08-08T04:06:02;14.20;99.90
45339;DHT22;31071;51.478;5.710;2023-08-08T04:08:28;14.20;99.90
45339;DHT22;31071;51.478;5.710;2023-08-08T04:10:54;14.10;99.90
45339;DHT22;31071;51.478;5.710;2023-08-08T04:13:30;14.00;99.90
45339;DHT22;31071;51.478;5.710;2023-08-08T04:15:57;14.00;99.90
45339;DHT22;31071;51.478;5.710;2023-08-08T04:18:23;14.10;99.90
45339;DHT22;31071;51.478;5.710;2023-08-08T04:20:51;14.00;99.90
45339;DHT22;31071;51.478;5.710;2023-08-08T04:23:17;13.10;99.90
45339;DHT22;31071;51.478;5.710;2023-08-08T04:25:42;13.90;99.90
45339;DHT22;31071;51.478;5.710;2023-08-08T04:28:08;13.80;99.90
45339;DHT22;31071;51.478;5.710;2023-08-08T04:30:34;13.80;99.90
45339;DHT22;31071;51.478;5.710;2023-08-08T04:33:00;13.80;99.90
45339;DHT22;31071;51.478;5.710;2023-08-08T04:35:26;13.80;99.90
45339;DHT22;31071;51.478;5.710;2023-08-08T04:37:52;13.70;99.90
45339;DHT22;31071;51.478;5.710;2023-08-08T04:40:17;13.90;99.90
45339;DHT22;31071;51.478;5.710;2023-08-08T04:42:43;13.80;99.90
45339;DHT22;31071;51.478;5.710;2023-08-08T04:45:09;13.80;99.90
45339;DHT22;31071;51.478;5.710;2023-08-08T04:47:35;13.70;99.90
45339;DHT22;31071;51.478;5.710;2023-08-08T04:50:02;14.70;99.90
45339;DHT22;31071;51.478;5.710;2023-08-08T04:52:31;14.50;99.90
45339;DHT22;31071;51.478;5.710;2023-08-08T04:54:57;13.30;99.90
45339;DHT22;31071;51.478;5.710;2023-08-08T04:57:22;13.70;99.90
45339;DHT22;31071;51.478;5.710;2023-08-08T04:59:48;16.00;99.90
45339;DHT22;31071;51.478;5.710;2023-08-08T05:02:14;13.70;99.90
45339;DHT22;31071;51.478;5.710;2023-08-08T05:04:43;13.70;99.90
45339;DHT22;31071;51.478;5.710;2023-08-08T05:07:09;13.70;99.90
45339;DHT22;31071;51.478;5.710;2023-08-08T05:09:35;13.70;99.90
45339;DHT22;31071;51.478;5.710;2023-08-08T05:12:01;13.60;99.90
45339;DHT22;31071;51.478;5.710;2023-08-08T05:14:27;13.20;99.90
45339;DHT22;31071;51.478;5.710;2023-08-08T05:16:53;16.10;99.90
45339;DHT22;31071;51.478;5.710;2023-08-08T05:19:18;13.70;99.90
45339;DHT22;31071;51.478;5.710;2023-08-08T05:21:47;13.70;99.90
45339;DHT22;31071;51.478;5.710;2023-08-08T05:24:13;13.70;99.90
45339;DHT22;31071;51.478;5.710;2023-08-08T05:26:39;13.30;99.90
45339;DHT22;31071;51.478;5.710;2023-08-08T05:29:05;15.00;99.90
45339;DHT22;31071;51.478;5.710;2023-08-08T05:31:32;14.80;99.90
45339;DHT22;31071;51.478;5.710;2023-08-08T05:33:57;14.60;99.90
45339;DHT22;31071;51.478;5.710;2023-08-08T05:36:23;13.70;99.90
45339;DHT22;31071;51.478;5.710;2023-08-08T05:38:49;13.90;99.90
45339;DHT22;31071;51.478;5.710;2023-08-08T05:41:15;14.00;99.90
45339;DHT22;31071;51.478;5.710;2023-08-08T05:43:40;14.00;99.90
45339;DHT22;31071;51.478;5.710;2023-08-08T05:46:06;14.00;99.90
45339;DHT22;31071;51.478;5.710;2023-08-08T05:48:32;12.30;99.90
45339;DHT22;31071;51.478;5.710;2023-08-08T05:50:58;14.10;99.90
45339;DHT22;31071;51.478;5.710;2023-08-08T05:53:25;14.10;99.90
45339;DHT22;31071;51.478;5.710;2023-08-08T05:55:51;14.20;99.90
45339;DHT22;31071;51.478;5.710;2023-08-08T05:58:16;14.30;99.90
45339;DHT22;31071;51.478;5.710;2023-08-08T06:00:42;13.70;99.90
45339;DHT22;31071;51.478;5.710;2023-08-08T06:03:08;14.20;99.90
45339;DHT22;31071;51.478;5.710;2023-08-08T06:05:34;14.20;99.90
45339;DHT22;31071;51.478;5.710;2023-08-08T06:07:59;15.20;99.90
45339;DHT22;31071;51.478;5.710;2023-08-08T06:10:25;14.20;99.90
45339;DHT22;31071;51.478;5.710;2023-08-08T06:12:51;14.40;99.90
45339;DHT22;31071;51.478;5.710;2023-08-08T06:15:17;14.50;99.90
45339;DHT22;31071;51.478;5.710;2023-08-08T06:17:43;14.50;99.90
45339;DHT22;31071;51.478;5.710;2023-08-08T06:20:09;14.60;99.90
45339;DHT22;31071;51.478;5.710;2023-08-08T06:22:36;14.50;99.90
45339;DHT22;31071;51.478;5.710;2023-08-08T06:25:02;14.60;99.90
45339;DHT22;31071;51.478;5.710;2023-08-08T06:27:32;14.60;99.90
45339;DHT22;31071;51.478;5.710;2023-08-08T06:29:57;14.80;99.90
45339;DHT22;31071;51.478;5.710;2023-08-08T06:32:32;14.80;99.90
45339;DHT22;31071;51.478;5.710;2023-08-08T06:35:01;14.90;99.90
45339;DHT22;31071;51.478;5.710;2023-08-08T06:37:27;15.40;99.90
45339;DHT22;31071;51.478;5.710;2023-08-08T06:39:53;15.50;99.90
45339;DHT22;31071;51.478;5.710;2023-08-08T06:42:19;15.10;99.90
45339;DHT22;31071;51.478;5.710;2023-08-08T06:44:45;15.10;99.90
45339;DHT22;31071;51.478;5.710;2023-08-08T06:47:11;14.50;99.90
45339;DHT22;31071;51.478;5.710;2023-08-08T06:49:37;15.20;99.90
45339;DHT22;31071;51.478;5.710;2023-08-08T06:52:04;15.80;99.90
45339;DHT22;31071;51.478;5.710;2023-08-08T06:54:29;15.30;99.90
45339;DHT22;31071;51.478;5.710;2023-08-08T06:56:55;17.50;99.90
45339;DHT22;31071;51.478;5.710;2023-08-08T06:59:22;15.40;99.90
45339;DHT22;31071;51.478;5.710;2023-08-08T07:01:48;15.60;99.90
45339;DHT22;31071;51.478;5.710;2023-08-08T07:04:14;15.70;99.90
45339;DHT22;31071;51.478;5.710;2023-08-08T07:06:41;17.80;99.90
45339;DHT22;31071;51.478;5.710;2023-08-08T07:09:07;15.80;99.90
45339;DHT22;31071;51.478;5.710;2023-08-08T07:11:37;17.70;99.90
45339;DHT22;31071;51.478;5.710;2023-08-08T07:14:03;16.00;99.90
45339;DHT22;31071;51.478;5.710;2023-08-08T07:16:29;16.00;99.90
45339;DHT22;31071;51.478;5.710;2023-08-08T07:18:54;18.30;99.90
45339;DHT22;31071;51.478;5.710;2023-08-08T07:21:42;16.80;99.90
45339;DHT22;31071;51.478;5.710;2023-08-08T07:24:12;16.20;99.90
45339;DHT22;31071;51.478;5.710;2023-08-08T07:26:41;16.30;99.90
45339;DHT22;31071;51.478;5.710;2023-08-08T07:29:07;17.90;99.90
45339;DHT22;31071;51.478;5.710;2023-08-08T07:31:33;17.00;99.90
45339;DHT22;31071;51.478;5.710;2023-08-08T07:33:59;18.70;99.90
45339;DHT22;31071;51.478;5.710;2023-08-08T07:36:25;16.80;99.90
45339;DHT22;31071;51.478;5.710;2023-08-08T07:38:51;16.80;99.90
45339;DHT22;31071;51.478;5.710;2023-08-08T07:41:17;17.60;99.90
45339;DHT22;31071;51.478;5.710;2023-08-08T07:43:43;16.90;99.90
45339;DHT22;31071;51.478;5.710;2023-08-08T07:46:09;16.70;99.90
45339;DHT22;31071;51.478;5.710;2023-08-08T07:48:35;16.80;99.90
45339;DHT22;31071;51.478;5.710;2023-08-08T07:51:00;16.80;99.90
45339;DHT22;31071;51.478;5.710;2023-08-08T07:53:26;16.80;99.90
45339;DHT22;31071;51.478;5.710;2023-08-08T07:55:52;17.00;99.90
45339;DHT22;31071;51.478;5.710;2023-08-08T07:58:17;17.20;99.90
45339;DHT22;31071;51.478;5.710;2023-08-08T08:00:43;17.60;99.90
45339;DHT22;31071;51.478;5.710;2023-08-08T08:03:10;18.00;99.90
45339;DHT22;31071;51.478;5.710;2023-08-08T08:05:35;18.00;99.90
45339;DHT22;31071;51.478;5.710;2023-08-08T08:08:03;20.40;99.90
45339;DHT22;31071;51.478;5.710;2023-08-08T08:10:28;18.30;99.90
45339;DHT22;31071;51.478;5.710;2023-08-08T08:12:54;19.90;99.90
45339;DHT22;31071;51.478;5.710;2023-08-08T08:15:24;20.30;99.90
45339;DHT22;31071;51.478;5.710;2023-08-08T08:17:49;18.40;99.90
45339;DHT22;31071;51.478;5.710;2023-08-08T08:20:15;18.20;99.90
45339;DHT22;31071;51.478;5.710;2023-08-08T08:22:41;18.20;99.90
45339;DHT22;31071;51.478;5.710;2023-08-08T08:25:07;18.30;99.90
45339;DHT22;31071;51.478;5.710;2023-08-08T08:27:35;19.10;99.90
45339;DHT22;31071;51.478;5.710;2023-08-08T08:30:03;18.10;99.90
45339;DHT22;31071;51.478;5.710;2023-08-08T08:32:32;18.00;99.90
45339;DHT22;31071;51.478;5.710;2023-08-08T08:34:58;18.80;99.90
45339;DHT22;31071;51.478;5.710;2023-08-08T08:37:23;18.90;99.90
45339;DHT22;31071;51.478;5.710;2023-08-08T08:39:49;19.70;99.90
45339;DHT22;31071;51.478;5.710;2023-08-08T08:42:15;18.00;99.90
45339;DHT22;31071;51.478;5.710;2023-08-08T08:44:42;19.20;99.90
45339;DHT22;31071;51.478;5.710;2023-08-08T08:47:10;20.10;99.90
45339;DHT22;31071;51.478;5.710;2023-08-08T08:49:38;18.40;99.90
45339;DHT22;31071;51.478;5.710;2023-08-08T08:52:05;21.00;99.90
45339;DHT22;31071;51.478;5.710;2023-08-08T08:54:32;17.80;99.90
45339;DHT22;31071;51.478;5.710;2023-08-08T08:56:58;18.90;99.90
45339;DHT22;31071;51.478;5.710;2023-08-08T08:59:24;20.90;99.90
45339;DHT22;31071;51.478;5.710;2023-08-08T09:01:51;18.60;99.90
45339;DHT22;31071;51.478;5.710;2023-08-08T09:04:19;19.10;99.90
45339;DHT22;31071;51.478;5.710;2023-08-08T09:06:46;19.30;99.90
45339;DHT22;31071;51.478;5.710;2023-08-08T09:09:13;19.20;99.90
45339;DHT22;31071;51.478;5.710;2023-08-08T09:11:44;20.30;99.90
45339;DHT22;31071;51.478;5.710;2023-08-08T09:14:22;18.20;99.90
45339;DHT22;31071;51.478;5.710;2023-08-08T09:16:49;18.40;99.90
45339;DHT22;31071;51.478;5.710;2023-08-08T09:19:16;19.80;99.90
45339;DHT22;31071;51.478;5.710;2023-08-08T09:21:43;19.90;99.90
45339;DHT22;31071;51.478;5.710;2023-08-08T09:24:10;18.70;99.90
45339;DHT22;31071;51.478;5.710;2023-08-08T09:26:43;18.70;99.90
45339;DHT22;31071;51.478;5.710;2023-08-08T09:29:19;19.00;99.90
45339;DHT22;31071;51.478;5.710;2023-08-08T09:31:46;18.90;99.90
45339;DHT22;31071;51.478;5.710;2023-08-08T09:34:12;18.90;99.90
45339;DHT22;31071;51.478;5.710;2023-08-08T09:40:11;18.40;99.90
45339;DHT22;31071;51.478;5.710;2023-08-08T09:42:40;18.40;99.90
45339;DHT22;31071;51.478;5.710;2023-08-08T09:45:09;18.90;99.90
45339;DHT22;31071;51.478;5.710;2023-08-08T09:47:35;18.30;99.90
45339;DHT22;31071;51.478;5.710;2023-08-08T09:50:10;19.50;99.90
45339;DHT22;31071;51.478;5.710;2023-08-08T09:52:36;17.20;99.90
45339;DHT22;31071;51.478;5.710;2023-08-08T09:55:07;19.60;99.90
45339;DHT22;31071;51.478;5.710;2023-08-08T10:01:21;18.30;99.90
45339;DHT22;31071;51.478;5.710;2023-08-08T10:03:48;18.60;99.90
45339;DHT22;31071;51.478;5.710;2023-08-08T10:06:16;18.80;99.90
45339;DHT22;31071;51.478;5.710;2023-08-08T10:08:41;19.10;99.90
45339;DHT22;31071;51.478;5.710;2023-08-08T10:11:08;19.40;99.90
45339;DHT22;31071;51.478;5.710;2023-08-08T10:13:36;19.60;99.90
45339;DHT22;31071;51.478;5.710;2023-08-08T10:16:08;19.50;99.90
45339;DHT22;31071;51.478;5.710;2023-08-08T10:18:34;20.20;99.70
45339;DHT22;31071;51.478;5.710;2023-08-08T10:21:00;21.60;99.50
45339;DHT22;31071;51.478;5.710;2023-08-08T10:23:36;20.00;99.60
45339;DHT22;31071;51.478;5.710;2023-08-08T10:26:02;20.00;99.50
45339;DHT22;31071;51.478;5.710;2023-08-08T10:28:28;19.80;98.60
45339;DHT22;31071;51.478;5.710;2023-08-08T10:30:58;20.10;99.20
45339;DHT22;31071;51.478;5.710;2023-08-08T10:33:25;20.40;98.00
45339;DHT22;31071;51.478;5.710;2023-08-08T10:36:00;20.40;98.20
45339;DHT22;31071;51.478;5.710;2023-08-08T10:38:27;20.00;97.90
45339;DHT22;31071;51.478;5.710;2023-08-08T10:41:03;20.20;98.30
45339;DHT22;31071;51.478;5.710;2023-08-08T10:43:30;20.90;97.70
45339;DHT22;31071;51.478;5.710;2023-08-08T10:46:03;21.10;97.30
45339;DHT22;31071;51.478;5.710;2023-08-08T10:48:29;21.20;97.20
45339;DHT22;31071;51.478;5.710;2023-08-08T10:50:57;21.20;97.20
45339;DHT22;31071;51.478;5.710;2023-08-08T10:53:26;21.20;97.10
45339;DHT22;31071;51.478;5.710;2023-08-08T10:56:03;20.70;96.60
45339;DHT22;31071;51.478;5.710;2023-08-08T10:58:37;20.70;97.00
45339;DHT22;31071;51.478;5.710;2023-08-08T11:01:03;20.80;96.90
45339;DHT22;31071;51.478;5.710;2023-08-08T11:03:36;21.30;97.20
45339;DHT22;31071;51.478;5.710;2023-08-08T11:06:02;21.20;97.40
45339;DHT22;31071;51.478;5.710;2023-08-08T11:08:30;20.50;96.60
45339;DHT22;31071;51.478;5.710;2023-08-08T11:10:56;20.00;97.80
45339;DHT22;31071;51.478;5.710;2023-08-08T11:13:22;19.60;98.30
45339;DHT22;31071;51.478;5.710;2023-08-08T11:15:49;19.20;99.10
45339;DHT22;31071;51.478;5.710;2023-08-08T11:18:15;18.80;99.80
45339;DHT22;31071;51.478;5.710;2023-08-08T11:20:40;18.80;99.90
45339;DHT22;31071;51.478;5.710;2023-08-08T11:23:06;18.50;99.90
45339;DHT22;31071;51.478;5.710;2023-08-08T11:25:36;18.50;99.90
45339;DHT22;31071;51.478;5.710;2023-08-08T11:28:02;20.20;99.90
45339;DHT22;31071;51.478;5.710;2023-08-08T11:30:31;19.20;99.90
45339;DHT22;31071;51.478;5.710;2023-08-08T11:33:00;20.30;99.30
45339;DHT22;31071;51.478;5.710;2023-08-08T11:35:26;21.20;97.30
45339;DHT22;31071;51.478;5.710;2023-08-08T11:37:53;21.60;96.90
45339;DHT22;31071;51.478;5.710;2023-08-08T11:40:20;21.60;96.70
45339;DHT22;31071;51.478;5.710;2023-08-08T11:42:46;21.40;96.30
45339;DHT22;31071;51.478;5.710;2023-08-08T11:45:12;21.90;95.70
45339;DHT22;31071;51.478;5.710;2023-08-08T11:47:39;22.80;93.40
45339;DHT22;31071;51.478;5.710;2023-08-08T11:50:07;22.60;93.00
45339;DHT22;31071;51.478;5.710;2023-08-08T11:52:40;21.70;94.60
45339;DHT22;31071;51.478;5.710;2023-08-08T11:55:09;22.30;94.80
45339;DHT22;31071;51.478;5.710;2023-08-08T11:57:36;23.00;92.60
45339;DHT22;31071;51.478;5.710;2023-08-08T12:00:05;23.00;91.50
45339;DHT22;31071;51.478;5.710;2023-08-08T12:02:32;23.60;91.20
45339;DHT22;31071;51.478;5.710;2023-08-08T12:05:04;24.90;90.00
45339;DHT22;31071;51.478;5.710;2023-08-08T12:07:32;24.60;86.90
45339;DHT22;31071;51.478;5.710;2023-08-08T12:09:58;25.00;87.40
45339;DHT22;31071;51.478;5.710;2023-08-08T12:12:27;25.30;85.90
45339;DHT22;31071;51.478;5.710;2023-08-08T12:14:54;25.00;86.10
45339;DHT22;31071;51.478;5.710;2023-08-08T12:17:21;25.50;84.50
45339;DHT22;31071;51.478;5.710;2023-08-08T12:19:47;25.80;82.90
45339;DHT22;31071;51.478;5.710;2023-08-08T12:22:13;24.50;85.20
45339;DHT22;31071;51.478;5.710;2023-08-08T12:24:39;24.70;87.80
45339;DHT22;31071;51.478;5.710;2023-08-08T12:27:05;25.30;90.00
45339;DHT22;31071;51.478;5.710;2023-08-08T12:29:30;25.00;84.10
45339;DHT22;31071;51.478;5.710;2023-08-08T12:31:56;24.80;82.20
45339;DHT22;31071;51.478;5.710;2023-08-08T12:34:22;24.10;85.50
45339;DHT22;31071;51.478;5.710;2023-08-08T12:36:47;22.50;89.40
45339;DHT22;31071;51.478;5.710;2023-08-08T12:39:13;22.30;90.60
45339;DHT22;31071;51.478;5.710;2023-08-08T12:41:39;21.60;91.60
45339;DHT22;31071;51.478;5.710;2023-08-08T12:44:05;22.10;91.10
45339;DHT22;31071;51.478;5.710;2023-08-08T12:46:34;21.70;90.80
45339;DHT22;31071;51.478;5.710;2023-08-08T12:48:59;23.30;87.80
45339;DHT22;31071;51.478;5.710;2023-08-08T12:51:25;23.50;84.20
45339;DHT22;31071;51.478;5.710;2023-08-08T12:53:51;23.60;83.40
45339;DHT22;31071;51.478;5.710;2023-08-08T12:56:16;23.70;82.70
45339;DHT22;31071;51.478;5.710;2023-08-08T12:58:42;24.30;81.30
45339;DHT22;31071;51.478;5.710;2023-08-08T13:01:08;25.00;74.40
45339;DHT22;31071;51.478;5.710;2023-08-08T13:03:33;25.60;73.50
45339;DHT22;31071;51.478;5.710;2023-08-08T13:06:04;25.80;71.80
45339;DHT22;31071;51.478;5.710;2023-08-08T13:08:30;25.80;72.10
45339;DHT22;31071;51.478;5.710;2023-08-08T13:10:55;25.50;72.90
45339;DHT22;31071;51.478;5.710;2023-08-08T13:13:21;26.00;71.70
45339;DHT22;31071;51.478;5.710;2023-08-08T13:15:50;25.60;73.30
45339;DHT22;31071;51.478;5.710;2023-08-08T13:18:15;25.80;72.50
45339;DHT22;31071;51.478;5.710;2023-08-08T13:20:41;25.30;73.10
45339;DHT22;31071;51.478;5.710;2023-08-08T13:23:06;25.80;73.30
45339;DHT22;31071;51.478;5.710;2023-08-08T13:25:32;24.90;73.00
45339;DHT22;31071;51.478;5.710;2023-08-08T13:28:00;24.60;70.50
45339;DHT22;31071;51.478;5.710;2023-08-08T13:30:26;24.90;73.10
45339;DHT22;31071;51.478;5.710;2023-08-08T13:32:52;24.60;72.70
45339;DHT22;31071;51.478;5.710;2023-08-08T13:35:17;24.60;71.10
45339;DHT22;31071;51.478;5.710;2023-08-08T13:37:43;23.80;74.30
45339;DHT22;31071;51.478;5.710;2023-08-08T13:40:11;23.50;73.40
45339;DHT22;31071;51.478;5.710;2023-08-08T13:42:36;22.70;75.10
45339;DHT22;31071;51.478;5.710;2023-08-08T13:45:02;22.50;75.00
45339;DHT22;31071;51.478;5.710;2023-08-08T13:47:28;24.10;73.40
45339;DHT22;31071;51.478;5.710;2023-08-08T13:49:53;25.50;71.10
45339;DHT22;31071;51.478;5.710;2023-08-08T13:52:19;26.00;68.40
45339;DHT22;31071;51.478;5.710;2023-08-08T13:54:44;25.50;67.50
45339;DHT22;31071;51.478;5.710;2023-08-08T13:57:10;25.80;68.80
45339;DHT22;31071;51.478;5.710;2023-08-08T13:59:35;25.00;68.00
45339;DHT22;31071;51.478;5.710;2023-08-08T14:02:01;24.70;68.50
45339;DHT22;31071;51.478;5.710;2023-08-08T14:04:26;24.80;70.30
45339;DHT22;31071;51.478;5.710;2023-08-08T14:06:52;24.90;70.50
45339;DHT22;31071;51.478;5.710;2023-08-08T14:09:17;25.50;67.70
45339;DHT22;31071;51.478;5.710;2023-08-08T14:11:43;26.10;64.80
45339;DHT22;31071;51.478;5.710;2023-08-08T14:14:09;25.60;64.30
45339;DHT22;31071;51.478;5.710;2023-08-08T14:16:34;25.70;64.90
45339;DHT22;31071;51.478;5.710;2023-08-08T14:19:00;25.30;65.40
45339;DHT22;31071;51.478;5.710;2023-08-08T14:21:25;25.50;66.20
45339;DHT22;31071;51.478;5.710;2023-08-08T14:23:51;24.30;66.00
45339;DHT22;31071;51.478;5.710;2023-08-08T14:26:16;24.20;69.40
45339;DHT22;31071;51.478;5.710;2023-08-08T14:28:42;24.40;68.70
45339;DHT22;31071;51.478;5.710;2023-08-08T14:31:07;23.30;70.90
45339;DHT22;31071;51.478;5.710;2023-08-08T14:33:33;24.30;70.80
45339;DHT22;31071;51.478;5.710;2023-08-08T14:35:59;24.20;67.80
45339;DHT22;31071;51.478;5.710;2023-08-08T14:38:25;23.70;69.60
45339;DHT22;31071;51.478;5.710;2023-08-08T14:40:51;24.20;70.00
45339;DHT22;31071;51.478;5.710;2023-08-08T14:43:18;24.00;70.80
45339;DHT22;31071;51.478;5.710;2023-08-08T14:45:44;22.90;71.60
45339;DHT22;31071;51.478;5.710;2023-08-08T14:48:09;22.30;73.80
45339;DHT22;31071;51.478;5.710;2023-08-08T14:50:35;22.00;76.00
45339;DHT22;31071;51.478;5.710;2023-08-08T14:53:00;22.50;75.80
45339;DHT22;31071;51.478;5.710;2023-08-08T14:55:26;23.70;74.70
45339;DHT22;31071;51.478;5.710;2023-08-08T14:57:52;23.00;75.00
45339;DHT22;31071;51.478;5.710;2023-08-08T15:00:17;24.20;76.40
45339;DHT22;31071;51.478;5.710;2023-08-08T15:02:43;22.60;75.60
45339;DHT22;31071;51.478;5.710;2023-08-08T15:05:08;22.50;75.80
45339;DHT22;31071;51.478;5.710;2023-08-08T15:07:34;22.10;76.40
45339;DHT22;31071;51.478;5.710;2023-08-08T15:10:00;23.30;78.10
45339;DHT22;31071;51.478;5.710;2023-08-08T15:12:25;23.80;78.80
45339;DHT22;31071;51.478;5.710;2023-08-08T15:14:51;24.20;78.30
45339;DHT22;31071;51.478;5.710;2023-08-08T15:17:17;24.40;79.20
45339;DHT22;31071;51.478;5.710;2023-08-08T15:19:42;24.40;80.30
45339;DHT22;31071;51.478;5.710;2023-08-08T15:22:08;22.40;79.10
45339;DHT22;31071;51.478;5.710;2023-08-08T15:24:33;22.10;79.00
45339;DHT22;31071;51.478;5.710;2023-08-08T15:27:01;21.80;80.50
45339;DHT22;31071;51.478;5.710;2023-08-08T15:29:27;21.70;81.20
45339;DHT22;31071;51.478;5.710;2023-08-08T15:31:53;21.50;81.10
45339;DHT22;31071;51.478;5.710;2023-08-08T15:34:18;21.40;81.30
45339;DHT22;31071;51.478;5.710;2023-08-08T15:36:44;21.40;82.40